Time;durP1;ratioP1;P1;durP2;ratioP2;P2;SDS_P1;SDS_P2;PMS_P1;PMS_P2;Temp;Humidity;BMP_temperature;BMP_pressure;BME280_temperature;BME280_humidity;BME280_pressure;Samples;Min_cycle;Max_cycle;Signal;HPM_P1;HPM_P2
2023/10/11 00:01:47;;;;;;;2.55;0.80;;;;;;;18.14;34.33;99676.94;4906122;29;20046;-78
2023/10/11 00:04:25;;;;;;;3.05;0.80;;;;;;;18.10;34.22;99672.88;4937476;29;20031;-79
2023/10/11 00:06:51;;;;;;;6.60;0.90;;;;;;;18.08;34.22;99670.38;4909305;29;20035;-79
2023/10/11 00:09:16;;;;;;;3.67;0.77;;;;;;;18.07;34.00;99662.59;4921368;29;20034;-78
2023/10/11 00:11:42;;;;;;;4.47;0.77;;;;;;;18.03;34.11;99670.00;4905643;29;20039;-79
2023/10/11 00:14:08;;;;;;;6.93;0.88;;;;;;;18.03;34.21;99671.81;4906019;29;20026;-78
2023/10/11 00:16:35;;;;;;;5.95;0.93;;;;;;;17.98;34.11;99668.75;4921549;29;20535;-79
2023/10/11 00:19:01;;;;;;;10.27;0.85;;;;;;;18.01;33.82;99673.75;4921525;29;20550;-78
2023/10/11 00:21:40;;;;;;;4.43;0.80;;;;;;;17.98;34.00;99669.59;4905677;29;20032;-78
2023/10/11 00:24:07;;;;;;;3.72;0.60;;;;;;;17.98;34.10;99668.75;4922755;29;20410;-78
2023/10/11 00:26:40;;;;;;;6.13;0.82;;;;;;;17.92;33.92;99658.72;4939110;29;20602;-78
2023/10/11 00:29:05;;;;;;;5.20;1.10;;;;;;;17.92;33.86;99666.66;4911113;29;20044;-78
2023/10/11 00:31:33;;;;;;;5.07;1.00;;;;;;;17.92;33.95;99666.66;4924681;29;20474;-78
2023/10/11 00:33:59;;;;;;;2.45;0.77;;;;;;;17.90;34.16;99666.84;4909383;29;20050;-78
2023/10/11 00:36:29;;;;;;;5.53;0.85;;;;;;;17.87;34.01;99665.25;4940909;29;20031;-78
2023/10/11 00:38:56;;;;;;;9.25;0.70;;;;;;;17.87;34.15;99665.25;4925939;29;20047;-79
2023/10/11 00:41:25;;;;;;;4.55;0.60;;;;;;;17.84;34.24;99660.25;4925245;29;20078;-80
2023/10/11 00:43:55;;;;;;;5.10;0.70;;;;;;;17.80;34.40;99665.97;4940696;29;20043;-78
2023/10/11 00:46:42;;;;;;;1.70;0.70;;;;;;;17.79;34.22;99667.78;4909826;29;20058;-78
2023/10/11 00:49:12;;;;;;;3.72;0.85;;;;;;;17.77;34.43;99663.59;4912785;29;20423;-77
2023/10/11 00:51:39;;;;;;;2.25;0.85;;;;;;;17.75;34.61;99663.75;4925731;29;20039;-78
2023/10/11 00:54:05;;;;;;;3.17;0.88;;;;;;;17.70;34.58;99668.63;4908842;29;20080;-79
2023/10/11 00:56:33;;;;;;;3.83;1.00;;;;;;;17.67;34.51;99660.97;4940509;29;20027;-79
2023/10/11 00:59:00;;;;;;;2.90;0.90;;;;;;;17.64;34.77;99662.06;4940866;29;20495;-79
2023/10/11 01:01:25;;;;;;;3.15;0.80;;;;;;;17.66;34.75;99665.44;4908785;29;20039;-78
2023/10/11 01:03:54;;;;;;;2.30;0.82;;;;;;;17.65;34.82;99669.03;4924392;29;20038;-78
2023/10/11 01:06:25;;;;;;;2.88;1.20;;;;;;;17.64;34.82;99674.47;4940689;29;20027;-78
2023/10/11 01:08:52;;;;;;;4.75;0.93;;;;;;;17.64;34.90;99677.91;4941865;29;20050;-78
2023/10/11 01:11:17;;;;;;;4.18;0.68;;;;;;;17.63;34.84;99681.56;4908928;29;20035;-78
2023/10/11 01:13:43;;;;;;;5.20;0.80;;;;;;;17.62;34.86;99679.06;4924254;29;20419;-78
2023/10/11 01:16:14;;;;;;;3.70;0.70;;;;;;;17.61;34.92;99680.00;4939864;29;20047;-78
2023/10/11 01:18:40;;;;;;;7.68;0.68;;;;;;;17.61;34.92;99685.28;4925089;29;20038;-79
2023/10/11 01:21:07;;;;;;;3.72;0.80;;;;;;;17.62;34.94;99681.69;4909027;29;20043;-79
2023/10/11 01:23:34;;;;;;;1.92;0.85;;;;;;;17.61;34.91;99693.22;4924756;29;20031;-79
2023/10/11 01:26:07;;;;;;;2.03;0.90;;;;;;;17.57;35.04;99690.03;4908205;29;20124;-79
2023/10/11 01:28:40;;;;;;;2.33;0.70;;;;;;;17.60;34.89;99695.03;4924787;29;20058;-78
2023/10/11 01:31:09;;;;;;;2.03;0.70;;;;;;;17.62;34.83;99705.44;4924736;29;20039;-78
2023/10/11 01:33:43;;;;;;;2.55;0.63;;;;;;;17.57;35.13;99692.66;4908955;29;20031;-79
2023/10/11 01:36:12;;;;;;;8.38;1.00;;;;;;;17.56;35.04;99700.72;4909097;29;20109;-78
2023/10/11 01:38:49;;;;;;;4.05;1.00;;;;;;;17.61;35.03;99709.06;4907065;29;20498;-79
2023/10/11 01:41:27;;;;;;;2.28;0.75;;;;;;;17.63;35.10;99715.03;4910202;29;20078;-78
2023/10/11 01:43:52;;;;;;;5.10;0.82;;;;;;;17.60;35.06;99716.16;4924184;29;20035;-79
2023/10/11 01:46:27;;;;;;;4.65;0.77;;;;;;;17.62;35.04;99718.66;4939344;29;20094;-78
2023/10/11 01:48:54;;;;;;;3.88;0.93;;;;;;;17.62;35.12;99716.00;4909844;29;20065;-78
2023/10/11 01:51:23;;;;;;;6.90;0.70;;;;;;;17.63;35.15;99722.94;4908263;29;20027;-79
2023/10/11 01:53:48;;;;;;;3.25;0.85;;;;;;;17.64;35.03;99719.34;4924609;29;20038;-78
2023/10/11 01:56:14;;;;;;;2.20;0.73;;;;;;;17.64;35.11;99724.63;4923634;29;20039;-78
2023/10/11 01:58:42;;;;;;;2.28;0.85;;;;;;;17.59;35.13;99722.38;4923379;29;20023;-78
2023/10/11 02:01:21;;;;;;;;;;;;;;;17.64;35.23;99728.09;4924960;29;20039;-78
2023/10/11 02:03:51;;;;;;;7.93;0.70;;;;;;;17.60;35.11;99732.00;4940056;29;19957;-78
2023/10/11 02:06:17;;;;;;;4.18;0.70;;;;;;;17.55;35.19;99718.34;4924802;29;20387;-79
2023/10/11 02:08:43;;;;;;;2.10;0.88;;;;;;;17.59;34.97;99725.03;4923613;29;20478;-77
2023/10/11 02:11:09;;;;;;;2.50;0.75;;;;;;;17.61;34.89;99724.91;4923203;29;20077;-78
2023/10/11 02:13:39;;;;;;;2.00;0.70;;;;;;;17.58;35.03;99722.53;4939479;29;20035;-77
2023/10/11 02:16:09;;;;;;;2.58;0.82;;;;;;;17.60;34.69;99728.50;4939976;29;20121;-79
2023/10/11 02:18:35;;;;;;;2.33;0.75;;;;;;;17.60;34.61;99723.22;4924835;29;20028;-79
2023/10/11 02:21:06;;;;;;;4.05;0.60;;;;;;;17.59;34.76;99725.03;4907376;29;20548;-79
2023/10/11 02:23:39;;;;;;;2.08;0.85;;;;;;;17.53;34.71;99715.84;4923761;29;20031;-78
2023/10/11 02:26:09;;;;;;;2.75;0.90;;;;;;;17.58;34.63;99730.44;4924949;29;20114;-78
2023/10/11 02:28:38;;;;;;;5.65;1.00;;;;;;;17.57;34.63;99741.97;4924459;29;20039;-78
2023/10/11 02:31:07;;;;;;;7.57;0.90;;;;;;;17.54;34.77;99743.91;4923156;28;20035;-81
2023/10/11 02:33:33;;;;;;;4.78;0.80;;;;;;;17.49;34.74;99732.09;4926558;28;20043;-78
2023/10/11 02:36:08;;;;;;;3.92;0.80;;;;;;;17.50;34.96;99733.78;4942300;28;20458;-78
2023/10/11 02:38:39;;;;;;;2.60;0.63;;;;;;;17.51;34.72;99735.44;4927784;28;20094;-78
2023/10/11 02:41:05;;;;;;;4.30;0.75;;;;;;;17.50;34.82;99731.13;4958219;28;20191;-79
2023/10/11 02:43:40;;;;;;;4.38;0.82;;;;;;;17.50;34.81;99737.22;4941411;28;20046;-79
2023/10/11 02:46:11;;;;;;;4.68;0.98;;;;;;;17.45;34.79;99730.72;4928506;28;20121;-79
2023/10/11 02:48:37;;;;;;;9.18;0.88;;;;;;;17.46;34.81;99743.78;4943291;28;20026;-79
2023/10/11 02:51:13;;;;;;;1.92;0.80;;;;;;;17.45;34.90;99742.09;4942067;28;20035;-79
2023/10/11 02:53:38;;;;;;;3.10;0.70;;;;;;;17.45;35.10;99744.75;4944450;28;20022;-80
2023/10/11 02:56:05;;;;;;;2.38;0.80;;;;;;;17.43;35.11;99735.31;4957359;28;20038;-79
2023/10/11 02:58:30;;;;;;;3.42;1.00;;;;;;;17.44;35.06;99745.72;4941414;28;20027;-79
2023/10/11 03:01:00;;;;;;;4.47;0.80;;;;;;;17.42;35.25;99742.38;4925451;28;20031;-78
2023/10/11 03:03:26;;;;;;;1.92;0.80;;;;;;;17.40;35.27;99740.84;4926771;28;20188;-80
2023/10/11 03:05:55;;;;;;;2.10;0.80;;;;;;;17.41;35.43;99750.41;4925302;28;20086;-78
2023/10/11 03:08:21;;;;;;;;;;;;;;;17.44;35.59;99750.16;4926084;28;20038;-80
2023/10/11 03:10:57;;;;;;;4.90;0.65;;;;;;;17.39;35.66;99752.38;4956815;28;19918;-78
2023/10/11 03:13:24;;;;;;;1.90;0.60;;;;;;;17.40;35.85;99754.88;4940759;28;20066;-79
2023/10/11 03:15:56;;;;;;;3.10;0.70;;;;;;;17.36;35.92;99743.75;4941333;28;20093;-79
2023/10/11 03:18:33;;;;;;;2.78;0.80;;;;;;;17.35;35.97;99738.63;4941643;28;20030;-79
2023/10/11 03:21:09;;;;;;;4.10;0.80;;;;;;;17.36;36.02;99735.84;4942281;28;20030;-85
2023/10/11 03:23:43;;;;;;;5.03;0.88;;;;;;;17.41;35.83;99751.28;4927624;28;20023;-84
2023/10/11 03:26:18;;;;;;;5.28;0.95;;;;;;;17.42;35.74;99760.84;4974144;28;20156;-83
2023/10/11 03:28:45;;;;;;;4.63;0.85;;;;;;;17.43;35.89;99761.69;4943118;28;20031;-83
2023/10/11 03:31:12;;;;;;;5.45;0.93;;;;;;;17.38;35.73;99751.56;4940601;28;20098;-84
2023/10/11 03:33:40;;;;;;;2.45;0.82;;;;;;;17.42;35.79;99757.38;4926338;28;20425;-86
2023/10/11 03:36:17;;;;;;;4.13;0.80;;;;;;;17.39;35.86;99744.47;4941046;28;20545;-82
2023/10/11 03:38:51;;;;;;;1.77;0.70;;;;;;;17.42;35.73;99750.28;4959623;28;20035;-86
2023/10/11 03:41:31;;;;;;;2.13;0.75;;;;;;;17.41;35.87;99758.34;4944665;28;20325;-87
2023/10/11 03:44:21;;;;;;;4.38;0.80;;;;;;;17.42;35.82;99757.38;4960265;28;20045;-83
2023/10/11 03:46:54;;;;;;;3.25;0.93;;;;;;;17.38;35.95;99748.06;4977429;28;20082;-85
2023/10/11 03:52:30;;;;;;;8.50;0.90;;;;;;;17.39;35.91;99758.47;4888638;29;20052;-81
2023/10/11 03:55:09;;;;;;;;;;;;;;;17.41;35.83;99760.97;4901550;29;20032;-79
2023/10/11 03:57:42;;;;;;;3.90;0.90;;;;;;;17.32;36.01;99754.72;4914220;29;19911;-83
2023/10/11 04:03:05;;;;;;;7.10;0.98;;;;;;;17.43;43.50;99754.59;4887758;29;20191;-82
2023/10/11 04:05:40;;;;;;;7.20;0.90;;;;;;;17.50;38.92;99765.44;4900755;29;20240;-83
2023/10/11 04:08:19;;;;;;;2.67;0.73;;;;;;;17.46;38.27;99756.97;4903909;29;20126;-90
2023/10/11 04:11:14;;;;;;;3.40;0.82;;;;;;;17.49;37.76;99758.50;4900596;29;20148;-86
2023/10/11 04:13:45;;;;;;;1.67;0.68;;;;;;;17.45;37.26;99755.28;4914761;29;20063;-74
2023/10/11 04:16:14;;;;;;;1.65;0.77;;;;;;;17.44;37.01;99761.56;4914022;29;20133;-81
2023/10/11 04:18:46;;;;;;;2.42;0.70;;;;;;;17.42;36.81;99766.13;4900107;29;20076;-80
2023/10/11 04:23:58;;;;;;;4.45;0.82;;;;;;;17.43;36.55;99765.16;4890903;29;20057;-86
2023/10/11 04:26:33;;;;;;;4.07;1.10;;;;;;;17.43;36.62;99773.09;4883944;29;20083;-86
2023/10/11 04:29:38;;;;;;;3.20;0.80;;;;;;;17.42;36.41;99767.94;4936872;28;20080;-85
2023/10/11 04:32:09;;;;;;;2.40;0.90;;;;;;;17.42;36.44;99776.69;4946149;28;20050;-87
2023/10/11 04:34:38;;;;;;;3.35;1.00;;;;;;;17.41;36.41;99775.03;4930745;28;20027;-86
2023/10/11 04:37:16;;;;;;;3.10;0.85;;;;;;;17.44;36.51;99785.31;4943364;28;20061;-88
2023/10/11 04:39:50;;;;;;;4.07;0.80;;;;;;;17.45;35.99;99783.50;4929722;28;20062;-88
2023/10/11 04:42:17;;;;;;;5.68;1.10;;;;;;;17.43;36.25;99791.56;4945847;28;20113;-86
2023/10/11 04:44:46;;;;;;;7.65;1.55;;;;;;;17.45;36.31;99800.16;4944403;28;20065;-87
2023/10/11 04:47:17;;;;;;;3.53;1.00;;;;;;;17.45;36.44;99794.88;4944323;28;20059;-87
2023/10/11 04:49:44;;;;;;;4.20;1.17;;;;;;;17.46;36.47;99790.47;4945981;28;20118;-89
2023/10/11 04:54:54;;;;;;;3.10;1.30;;;;;;;17.48;36.48;99799.91;4949900;28;20474;-87
2023/10/11 05:00:46;;;;;;;3.85;0.70;;;;;;;17.49;36.32;99796.31;4979233;28;20469;-90
2023/10/11 05:06:40;;;;;;;6.00;0.80;;;;;;;17.53;36.45;99802.13;4978377;28;20057;-88
2023/10/11 05:09:40;;;;;;;7.57;0.90;;;;;;;17.49;36.30;99795.44;4929405;28;20062;-88
2023/10/11 05:14:30;;;;;;;1.70;0.75;;;;;;;17.57;36.43;99811.47;4948118;28;20027;-87
2023/10/11 05:19:47;;;;;;;3.95;0.93;;;;;;;17.60;36.54;99807.69;4949451;28;20038;-81
2023/10/11 05:30:11;;;;;;;2.10;0.90;;;;;;;17.69;36.41;99814.81;4949220;28;20038;-88
2023/10/11 05:32:49;;;;;;;3.05;0.93;;;;;;;17.77;36.01;99822.03;4946650;28;20041;-88
2023/10/11 05:35:43;;;;;;;;;;;;;;;17.81;36.24;99826.91;4947108;28;20039;-85
2023/10/11 05:51:52;;;;;;;3.53;1.00;;;;;;;17.96;35.89;99852.97;4969483;28;20485;-90
2023/10/11 05:54:18;;;;;;;3.05;1.15;;;;;;;18.01;35.70;99848.09;4934609;28;20058;-88
2023/10/11 05:56:47;;;;;;;5.15;1.10;;;;;;;18.05;35.69;99846.84;4936183;28;20038;-88
2023/10/11 05:59:14;;;;;;;5.03;1.13;;;;;;;18.11;35.29;99848.94;4935734;28;20039;-88
2023/10/11 06:01:43;;;;;;;7.65;1.20;;;;;;;18.20;35.38;99852.56;4943677;28;20110;-88
2023/10/11 06:04:13;;;;;;;8.32;1.20;;;;;;;18.25;35.09;99848.53;4944825;28;20065;-89
2023/10/11 06:06:42;;;;;;;2.92;1.00;;;;;;;18.33;35.11;99862.84;4942999;28;20043;-88
2023/10/11 06:09:16;;;;;;;5.30;1.20;;;;;;;18.35;34.82;99863.56;4943397;28;20058;-87
2023/10/11 06:11:48;;;;;;;9.38;1.10;;;;;;;18.40;34.72;99863.97;4951098;28;20034;-88
2023/10/11 06:14:17;;;;;;;2.00;0.85;;;;;;;18.40;34.51;99858.69;4948461;28;20076;-89
2023/10/11 06:16:49;;;;;;;3.00;0.82;;;;;;;18.43;34.60;99867.16;4932417;28;20486;-90
2023/10/11 06:19:18;;;;;;;5.07;1.00;;;;;;;18.45;34.78;99874.94;4934229;28;20113;-88
2023/10/11 06:21:56;;;;;;;6.93;1.20;;;;;;;18.46;34.63;99876.63;4934731;28;20077;-87
2023/10/11 06:24:30;;;;;;;7.40;1.10;;;;;;;18.47;34.41;99878.31;4936605;28;20031;-90
2023/10/11 06:27:11;;;;;;;6.32;1.20;;;;;;;18.48;34.15;99881.78;4950549;28;20061;-88
2023/10/11 06:29:38;;;;;;;6.00;1.10;;;;;;;18.45;34.16;99880.25;4966354;28;20434;-89
2023/10/11 06:32:13;;;;;;;4.35;1.23;;;;;;;18.47;33.83;99880.97;4947827;28;20443;-88
2023/10/11 06:34:43;;;;;;;6.57;1.50;;;;;;;18.46;33.98;99879.28;4934589;28;20030;-89
2023/10/11 06:37:09;;;;;;;5.97;1.08;;;;;;;18.46;33.96;99881.09;4934558;28;20058;-89
2023/10/11 06:42:14;;;;;;;6.63;1.20;;;;;;;18.48;34.03;99885.25;4949690;28;20101;-88
2023/10/11 06:45:05;;;;;;;4.68;1.00;;;;;;;18.49;33.95;99894.03;4914654;29;20142;-87
2023/10/11 06:47:35;;;;;;;9.05;1.67;;;;;;;18.46;34.06;99887.19;4909064;29;20047;-88
2023/10/11 06:50:11;;;;;;;6.63;1.20;;;;;;;18.49;34.19;99891.38;4926332;29;20050;-87
2023/10/11 06:52:44;;;;;;;11.40;1.58;;;;;;;18.52;34.17;99899.03;4911969;29;20162;-89
2023/10/11 06:55:17;;;;;;;3.90;1.00;;;;;;;18.53;33.77;99908.63;4914152;29;20036;-88
2023/10/11 06:57:50;;;;;;;3.03;1.20;;;;;;;18.50;33.64;99893.03;4896084;29;20043;-89
2023/10/11 07:00:28;;;;;;;3.33;1.15;;;;;;;18.56;33.49;99911.00;4910405;29;20132;-87
2023/10/11 07:05:47;;;;;;;7.25;1.30;;;;;;;18.67;33.31;99912.66;4913780;29;20498;-86
2023/10/11 07:08:17;;;;;;;;;;;;;;;18.72;33.62;99913.91;4892940;29;20032;-86
2023/10/11 07:11:03;;;;;;;7.45;2.03;;;;;;;18.74;33.59;99911.97;4921864;29;19919;-88
2023/10/11 07:13:46;;;;;;;4.85;1.50;;;;;;;18.80;33.42;99908.75;4911400;29;20038;-86
2023/10/11 07:16:13;;;;;;;5.53;1.48;;;;;;;18.86;33.08;99906.53;4914623;29;20044;-89
2023/10/11 07:18:39;;;;;;;4.20;1.40;;;;;;;18.91;32.84;99915.72;4893911;29;20140;-88
2023/10/11 07:21:13;;;;;;;5.53;1.20;;;;;;;18.94;32.75;99915.44;4909405;29;20454;-87
2023/10/11 07:26:23;;;;;;;3.80;1.10;;;;;;;19.03;32.74;99910.28;4952730;28;20538;-91
2023/10/11 07:28:51;;;;;;;5.72;1.20;;;;;;;19.08;32.63;99910.66;4948904;28;20034;-89
2023/10/11 07:31:21;;;;;;;6.40;1.40;;;;;;;19.21;32.34;99916.47;4947297;28;20031;-89
2023/10/11 07:33:50;;;;;;;7.72;1.10;;;;;;;19.28;32.27;99908.81;4933412;28;20038;-88
2023/10/11 07:36:18;;;;;;;6.53;1.20;;;;;;;19.43;31.76;99920.56;4936100;28;20029;-88
2023/10/11 07:39:14;;;;;;;6.57;0.98;;;;;;;19.53;31.37;99913.44;4939279;28;20031;-89
2023/10/11 07:41:42;;;;;;;8.23;1.27;;;;;;;19.66;31.01;99914.94;4968716;28;20114;-89
2023/10/11 07:44:09;;;;;;;9.32;1.08;;;;;;;19.78;31.00;99923.53;4934382;28;20583;-88
2023/10/11 07:46:39;;;;;;;5.70;1.20;;;;;;;19.84;30.75;99925.59;4934998;28;20031;-90
2023/10/11 07:49:09;;;;;;;3.47;1.10;;;;;;;19.85;30.68;99929.91;4951839;28;20026;-89
2023/10/11 07:51:39;;;;;;;6.93;1.15;;;;;;;19.85;30.54;99929.91;4934880;28;20041;-87
2023/10/11 07:54:11;;;;;;;2.88;1.08;;;;;;;19.91;30.79;99934.63;4932853;28;20027;-89
2023/10/11 07:56:37;;;;;;;7.80;1.55;;;;;;;20.03;30.90;99938.72;4953787;28;20033;-87
2023/10/11 07:59:08;;;;;;;5.50;1.17;;;;;;;20.10;30.96;99927.53;4950451;28;20031;-87
2023/10/11 08:01:42;;;;;;;3.20;1.00;;;;;;;20.15;31.01;99938.53;4966743;28;20026;-88
2023/10/11 08:04:21;;;;;;;2.05;1.00;;;;;;;20.17;30.91;99945.34;4949813;28;20047;-89
2023/10/11 08:06:47;;;;;;;8.70;1.23;;;;;;;20.20;30.71;99942.38;4952313;28;20015;-86
2023/10/11 08:09:19;;;;;;;3.28;1.10;;;;;;;20.21;30.68;99938.75;4982365;28;20038;-87
2023/10/11 08:11:52;;;;;;;5.15;1.15;;;;;;;20.19;30.64;99935.44;4982043;28;20034;-90
2023/10/11 08:14:28;;;;;;;7.95;1.30;;;;;;;20.10;30.58;99936.31;4967750;28;20029;-87
2023/10/11 08:16:56;;;;;;;7.13;1.40;;;;;;;20.10;30.62;99943.44;4952758;28;20046;-89
2023/10/11 08:21:57;;;;;;;6.63;1.20;;;;;;;20.00;30.96;99938.19;5025759;23;20052;-87
2023/10/11 08:24:27;;;;;;;10.80;1.23;;;;;;;19.94;31.04;99952.88;5001684;28;20022;-89
2023/10/11 08:27:05;;;;;;;7.20;1.50;;;;;;;19.93;31.30;99948.56;5001641;28;20047;-82
2023/10/11 08:29:32;;;;;;;13.23;1.23;;;;;;;19.90;31.32;99946.19;4972225;28;20018;-85
2023/10/11 08:31:58;;;;;;;8.27;1.50;;;;;;;19.85;31.43;99937.88;5001306;28;20056;-86
2023/10/11 08:34:26;;;;;;;5.70;1.20;;;;;;;19.84;31.36;99946.78;4977373;28;20053;-88
2023/10/11 08:36:54;;;;;;;6.35;1.20;;;;;;;19.79;32.08;99955.16;4947494;28;20204;-90
2023/10/11 08:39:44;;;;;;;;;;;;;;;19.75;31.85;99948.50;4964004;28;20038;-87
2023/10/11 08:42:12;;;;;;;12.05;1.88;;;;;;;19.68;31.98;99953.50;4966475;28;20432;-86
2023/10/11 08:44:44;;;;;;;5.97;1.52;;;;;;;19.64;31.92;99954.81;4949137;28;20482;-87
2023/10/11 08:47:13;;;;;;;9.80;1.00;;;;;;;19.47;31.93;99926.44;4971290;28;20023;-87
2023/10/11 08:49:41;;;;;;;4.13;0.90;;;;;;;19.56;32.01;99954.69;5003286;28;20069;-91
2023/10/11 08:52:10;;;;;;;5.57;1.13;;;;;;;19.56;32.08;99959.16;4973221;28;20027;-87
2023/10/11 08:54:37;;;;;;;7.55;1.02;;;;;;;19.55;32.22;99960.16;4984558;28;20093;-88
2023/10/11 08:57:03;;;;;;;6.68;1.30;;;;;;;19.55;32.19;99955.66;4951875;28;20037;-88
2023/10/11 08:59:31;;;;;;;3.70;1.23;;;;;;;19.54;32.03;99954.00;4957963;28;20093;-88
2023/10/11 09:02:07;;;;;;;5.53;1.10;;;;;;;19.62;32.17;99951.44;4969695;28;20038;-88
2023/10/11 09:04:35;;;;;;;5.47;1.10;;;;;;;19.69;31.99;99949.06;4956482;28;20117;-90
2023/10/11 09:07:01;;;;;;;3.63;1.00;;;;;;;19.77;31.99;99951.03;4974201;28;20374;-89
2023/10/11 09:09:45;;;;;;;6.72;1.10;;;;;;;19.91;31.85;99953.19;4955269;28;20466;-89
2023/10/11 09:12:41;;;;;;;4.85;1.10;;;;;;;20.07;31.78;99955.19;4989204;28;20102;-87
2023/10/11 09:15:25;;;;;;;4.32;1.00;;;;;;;20.21;31.73;99949.38;4989025;28;20075;-89
2023/10/11 09:21:17;;;;;;;6.85;1.20;;;;;;;20.72;31.19;99954.19;4964006;28;20078;-89
2023/10/11 09:23:49;;;;;;;5.18;1.10;;;;;;;21.55;30.20;99950.28;4962913;29;20066;-91
2023/10/11 09:26:32;;;;;;;4.38;1.10;;;;;;;22.89;28.56;99936.13;4960791;29;20027;-89
2023/10/11 09:29:02;;;;;;;5.38;1.10;;;;;;;23.37;27.65;99950.41;4948069;29;20035;-87
2023/10/11 09:31:31;;;;;;;7.88;1.10;;;;;;;23.49;27.98;99949.00;4959305;29;20034;-87
2023/10/11 09:34:02;;;;;;;7.50;1.15;;;;;;;24.17;27.09;99945.91;4945744;29;20035;-89
2023/10/11 09:36:28;;;;;;;6.40;1.10;;;;;;;24.09;26.98;99936.13;4962086;29;20058;-89
2023/10/11 09:38:55;;;;;;;8.68;1.10;;;;;;;24.04;26.93;99941.16;4959004;29;20487;-86
2023/10/11 09:41:40;;;;;;;7.20;1.50;;;;;;;23.97;26.78;99934.84;4943760;29;20047;-89
2023/10/11 09:44:10;;;;;;;5.53;1.13;;;;;;;23.93;26.84;99939.72;4963849;29;20046;-90
2023/10/11 09:46:37;;;;;;;7.70;1.50;;;;;;;23.85;26.96;99931.75;4963305;29;20084;-86
2023/10/11 09:49:04;;;;;;;8.82;1.63;;;;;;;23.84;27.05;99938.91;4944726;29;20035;-89
2023/10/11 09:51:31;;;;;;;5.32;1.45;;;;;;;23.75;26.91;99934.63;4945252;28;20047;-89
2023/10/11 09:54:07;;;;;;;8.18;1.80;;;;;;;23.71;27.40;99933.28;4945104;28;20031;-88
2023/10/11 09:56:53;;;;;;;9.20;1.55;;;;;;;23.66;28.20;99923.13;4946062;28;20379;-87
2023/10/11 10:00:14;;;;;;;6.97;1.45;;;;;;;23.65;28.83;99923.31;4955339;28;20047;-87
2023/10/11 10:02:50;;;;;;;5.05;1.30;;;;;;;23.62;28.65;99916.47;4957852;29;20038;-87
2023/10/11 10:05:22;;;;;;;3.38;1.40;;;;;;;23.59;28.49;99910.66;4941459;29;20194;-88
2023/10/11 10:07:50;;;;;;;4.65;1.25;;;;;;;23.65;28.55;99923.31;4943917;29;20565;-88
2023/10/11 10:10:16;;;;;;;17.00;1.77;;;;;;;23.61;28.62;99914.84;4941703;29;20039;-89
2023/10/11 10:12:58;;;;;;;9.00;1.38;;;;;;;23.65;28.27;99916.13;4943306;29;20113;-87
2023/10/11 10:15:31;;;;;;;5.50;1.20;;;;;;;23.68;28.40;99917.63;4941039;29;20035;-89
2023/10/11 10:18:05;;;;;;;3.58;1.27;;;;;;;23.64;28.58;99919.81;4944213;29;20034;-89
2023/10/11 10:20:44;;;;;;;5.60;1.13;;;;;;;23.62;28.49;99916.47;4969583;28;20123;-88
2023/10/11 10:23:22;;;;;;;4.13;1.15;;;;;;;23.60;28.51;99913.16;4948736;28;20039;-89
2023/10/11 10:26:06;;;;;;;2.22;1.27;;;;;;;23.64;28.40;99914.50;4986509;28;20031;-88
2023/10/11 10:31:09;;;;;;;6.10;1.00;;;;;;;23.63;27.96;99906.66;5005046;28;20031;-87
2023/10/11 10:33:40;;;;;;;3.90;1.20;;;;;;;23.63;28.29;99904.00;4994069;28;20042;-89
2023/10/11 10:36:18;;;;;;;5.20;1.20;;;;;;;23.65;28.22;99894.81;4971218;28;20053;-89
2023/10/11 10:39:47;;;;;;;8.32;1.17;;;;;;;23.72;28.02;99894.13;4987055;28;20069;-89
2023/10/11 10:42:12;;;;;;;6.65;1.27;;;;;;;23.80;28.02;99884.25;4994816;28;20026;-89
2023/10/11 10:44:51;;;;;;;4.28;1.15;;;;;;;23.90;27.95;99878.72;5003334;28;20030;-89
2023/10/11 10:47:28;;;;;;;5.68;1.27;;;;;;;23.96;27.88;99880.69;4971228;28;20026;-89
2023/10/11 10:49:55;;;;;;;6.47;1.30;;;;;;;24.00;27.66;99874.00;4953288;28;20041;-88
2023/10/11 10:52:30;;;;;;;4.68;1.50;;;;;;;23.93;27.91;99867.72;4949022;28;20161;-87
2023/10/11 10:55:05;;;;;;;7.63;1.38;;;;;;;23.91;27.69;99868.88;4965800;28;20034;-87
2023/10/11 10:57:36;;;;;;;5.18;1.27;;;;;;;23.75;27.61;99857.31;4950608;28;20053;-89
2023/10/11 11:00:05;;;;;;;3.90;1.10;;;;;;;23.76;27.91;99863.44;4968906;28;20034;-88
2023/10/11 11:02:36;;;;;;;9.63;1.20;;;;;;;23.92;27.83;99859.88;4968930;28;20035;-88
2023/10/11 11:05:13;;;;;;;6.07;1.20;;;;;;;23.87;27.83;99873.75;4968538;28;20034;-89
2023/10/11 11:07:47;;;;;;;10.90;1.33;;;;;;;23.77;28.16;99857.94;4973261;28;20098;-88
2023/10/11 11:10:20;;;;;;;5.32;1.48;;;;;;;23.68;28.11;99851.00;4970269;28;20030;-87
2023/10/11 11:13:11;;;;;;;6.70;1.30;;;;;;;23.60;28.44;99851.88;4953704;28;20042;-89
2023/10/11 11:15:38;;;;;;;7.95;1.50;;;;;;;23.67;28.38;99839.50;4986708;28;20467;-88
2023/10/11 11:18:05;;;;;;;8.32;1.63;;;;;;;23.67;28.44;99842.19;4972858;28;20449;-88
2023/10/11 11:20:32;;;;;;;3.30;1.10;;;;;;;23.64;28.76;99836.34;4968405;28;20038;-91
2023/10/11 11:22:58;;;;;;;5.07;1.30;;;;;;;23.70;28.53;99829.50;4953702;28;20375;-87
2023/10/11 11:28:05;;;;;;;2.92;1.40;;;;;;;23.54;28.80;99827.75;4968965;28;20041;-90
2023/10/11 11:30:34;;;;;;;3.92;1.55;;;;;;;23.44;28.75;99820.81;4980334;28;20494;-87
2023/10/11 11:33:13;;;;;;;6.88;1.08;;;;;;;23.38;29.17;99815.34;4967746;28;20050;-87
2023/10/11 11:35:46;;;;;;;5.50;1.30;;;;;;;23.27;29.32;99806.72;4970456;28;20029;-87
2023/10/11 11:38:20;;;;;;;4.55;1.30;;;;;;;23.28;29.12;99802.25;4994004;28;20097;-90
2023/10/11 11:41:04;;;;;;;7.00;1.50;;;;;;;23.23;29.43;99797.44;4977867;28;20022;-90
2023/10/11 11:43:34;;;;;;;2.72;1.33;;;;;;;23.19;29.38;99793.44;4988203;28;20030;-87
2023/10/11 11:46:02;;;;;;;7.47;1.40;;;;;;;23.09;29.60;99798.16;4952131;28;20589;-89
2023/10/11 11:48:40;;;;;;;3.85;1.60;;;;;;;23.05;29.30;99797.63;4970922;28;20026;-87
2023/10/11 11:54:28;;;;;;;3.20;1.42;;;;;;;22.93;29.80;99786.53;5006464;28;20413;-88
2023/10/11 11:56:56;;;;;;;9.05;1.70;;;;;;;22.87;29.92;99783.72;4988410;28;20452;-90
2023/10/11 11:59:22;;;;;;;7.40;1.50;;;;;;;22.81;29.85;99781.75;4975169;28;20050;-88
2023/10/11 12:02:16;;;;;;;3.28;1.60;;;;;;;22.79;29.99;99787.25;4975006;28;20088;-88
2023/10/11 12:04:44;;;;;;;4.25;1.52;;;;;;;22.67;30.03;99775.28;4993705;28;20069;-88
2023/10/11 12:07:11;;;;;;;3.13;1.27;;;;;;;22.65;30.03;99771.97;4989707;28;20035;-86
2023/10/11 12:09:38;;;;;;;4.72;1.42;;;;;;;22.57;30.21;99767.50;4954509;28;20488;-88
2023/10/11 12:12:05;;;;;;;3.88;1.40;;;;;;;22.50;30.26;99766.50;4951751;28;20054;-88
2023/10/11 12:14:37;;;;;;;5.60;1.35;;;;;;;22.44;30.46;99759.19;4950287;28;20379;-88
2023/10/11 12:17:14;;;;;;;8.68;1.25;;;;;;;22.44;30.62;99764.53;4965225;28;20042;-88
2023/10/11 12:19:41;;;;;;;3.70;1.63;;;;;;;22.42;30.55;99772.66;4952061;28;20034;-90
2023/10/11 12:22:08;;;;;;;3.50;1.50;;;;;;;22.38;30.57;99768.69;4952108;28;20072;-91
2023/10/11 12:24:34;;;;;;;10.05;1.73;;;;;;;22.36;30.65;99760.03;4956406;28;20033;-90
2023/10/11 12:27:00;;;;;;;6.35;1.80;;;;;;;22.33;30.74;99765.69;4972471;28;20470;-87
2023/10/11 12:29:28;;;;;;;11.95;2.30;;;;;;;22.30;30.64;99769.53;4973088;28;20057;-88
2023/10/11 12:31:54;;;;;;;;;;;;;;;22.29;30.59;99759.03;4954389;28;20041;-86
2023/10/11 12:34:25;;;;;;;4.63;1.70;;;;;;;22.23;30.43;99760.53;4970213;28;19909;-89
2023/10/11 12:36:53;;;;;;;9.38;2.03;;;;;;;22.21;30.37;99765.19;4972804;28;20037;-88
2023/10/11 12:39:23;;;;;;;8.73;1.90;;;;;;;22.19;30.66;99759.22;4972047;28;20038;-90
2023/10/11 12:41:50;;;;;;;10.82;1.60;;;;;;;22.20;30.85;99755.53;4956397;28;20030;-88
2023/10/11 12:44:19;;;;;;;5.88;1.40;;;;;;;22.17;31.12;99750.56;4955956;28;20061;-89
2023/10/11 12:46:45;;;;;;;10.80;1.52;;;;;;;22.15;30.88;99760.53;4968918;28;20094;-89
2023/10/11 12:49:13;;;;;;;7.30;1.60;;;;;;;22.12;30.96;99753.72;4969869;28;20037;-87
2023/10/11 12:51:43;;;;;;;3.38;1.60;;;;;;;22.09;30.78;99747.91;4954866;28;20413;-89
2023/10/11 12:54:10;;;;;;;6.18;1.58;;;;;;;22.07;31.15;99742.75;4956189;28;20026;-88
2023/10/11 12:56:36;;;;;;;3.15;1.45;;;;;;;22.05;30.97;99739.44;4956746;28;20037;-88
2023/10/11 12:59:02;;;;;;;6.57;1.33;;;;;;;22.05;31.10;99744.75;4953669;28;20478;-90
2023/10/11 13:01:42;;;;;;;7.75;1.70;;;;;;;22.01;31.45;99743.41;4957356;28;20038;-88
2023/10/11 13:04:17;;;;;;;5.20;1.48;;;;;;;21.88;31.13;99722.66;4988330;28;20033;-88